Detall de PIREP

Printer-friendly versionPDF version

[2013/12/11 17:31:00]
Flight IATA:CT3128
Pilot Number:012
Company ICAO:CAT
Aircraft Type:MD11/E
PAX:0
Aircraft Registration:CARGO
Departing Airport: LEVC
Destination Airport: LEZG
Alternate Airport:LEMD
Online: VATSIM
Route:TATOS A34 MLA
Flight Level:F200
No Slew and time accel
No pause
Crash detect
Detect pilot in Cockpit between each 30 and 45 minutes
17:31 Zero fuel Weight: 322629 Lbs, Fuel Weight: 39581 Lbs
17:31 VATSIM:LEVC 111700Z VRB02KT 9999 FEW030 OVC046 14/08 Q1032 NOSIG
17:31 VATSIM:LEZG 111700Z 12006KT 080V140 0500 R30R/0900N R12R/1000N R30L/0900N FG VV001 02/02 Q1032
17:31 VOICE CATALONIAN
17:31 Parking Brakes off
17:35 Take-off
17:35 Take off Weight: 361251 Lbs
17:35 Wind: 140º @ 003 Knots Heading: 115º
17:35 POS N39º 29´ 30´´ W000º 29´ 18´´
17:35 Gear Up: 199 Knots
17:35 Flaps:3 at 200 Knots
17:36 Flaps:2 at 218 Knots
17:36 Flaps:3 at 220 Knots
17:36 Flaps:2 at 220 Knots
17:36 Flaps:1 at 222 Knots
17:37 Flaps:0 at 243 Knots
17:40 TOC
17:40 Fuel Weight: 34614 Lb
17:50 Wind:173º@008 Knots Heading: 017º Ground Speed: 434 Knots Altitude 20528 ft
17:54 TOD
17:54 Fuel Weight: 30817 Lb
17:57 Flaps:1 at 228 Knots
18:00 Flaps:2 at 209 Knots
18:00 Flaps:3 at 204 Knots
18:01 Flaps:4 at 200 Knots
18:01 Flaps:3 at 200 Knots
18:01 Flaps:4 at 200 Knots
18:01 Gear Down: 199 Knots
18:01 Flaps:5 at 199 Knots
18:01 Flaps:6 at 199 Knots
18:02 Flaps:7 at 191 Knots
18:05 Wind:122º@003 Knots Heading: 306º Ground Speed: 172 Knots Altitude 2624 ft
18:07 TouchDown:Rate -179 ft/min Speed: 144 Knots
18:07 VATSIM:LEZG 111730Z 13004KT 100V160 0600 R30R/0800N R12R/1300U R30L/0800N FG VV001 02/01 Q1032
18:07 Land
18:07 Wind:112º@005 Knots
18:07 Heading: 301º
18:07 Flight Duration: 00:32
18:07 Landing Weight: 351215 Lbs
18:07 POS N41º 39´ 58´´ W001º 01´ 59´´
18:10 Parking brakes on
18:10 Block to Block Duration: 00:39
18:10 Final Fuel: 28326 Lbls
18:10 Spent Fuel: 11254 Lbls
18:10 Flight Length: 183 NM
18:10 TOD Land Length: 51 NM

Exportar CSV

Powered by Drupal - Modified by Danger4k